Thursday, February 22, 2018, 12:10 PM EST
Back to Local

KBAF, Westfield Barnes Municipal

Location: Westfield, MA, United States Lat: 42.167
Local Time: 12:10 PM EST (17:10 GMT) Lon: -72.717
Time Zone: US/Eastern Elev: 272 ft

Show me the last for .
Show Decoded

2018-02-22 11:53 METAR KBAF 221653Z 04004KT 10SM -RA BKN055 OVC080 04/M03 A3064 RMK AO2 RAE17B41
                 SLP379 P0001 T00441028 =
2018-02-22 10:53 METAR KBAF 221553Z 01008KT 10SM -RA FEW060 OVC080 04/M02 A3066 RMK AO2 RAE22B45
                 SLP384 P0000 T00391022 =
2018-02-22 09:53 METAR KBAF 221453Z 34008KT 10SM -RA OVC075 04/M02 A3066 RMK AO2 RAE1357B34
                 SLP386 P0000 60000 T00391017 53021 =
2018-02-22 08:53 METAR KBAF 221353Z 01009KT 10SM -RA OVC080 04/M03 A3063 RMK AO2 RAE17B45 SLP376
                 P0000 T00441028 =
2018-02-22 07:53 METAR KBAF 221253Z 02007KT 10SM -RA OVC080 05/M04 A3062 RMK AO2 RAB53 SLP374
                 P0000 T00501039 =
2018-02-22 06:53 METAR KBAF 221153Z 01008KT 10SM OVC080 05/M04 A3060 RMK AO2 SLP364 T00501044
                 10089 20050 51025 =
2018-02-22 05:53 METAR KBAF 221053Z AUTO 03008KT 10SM OVC080 06/M06 A3058 RMK AO2 SLP359
                 T00561056 =
2018-02-22 04:53 METAR KBAF 220953Z AUTO 03007KT 350V050 10SM OVC070 06/M07 A3056 RMK AO2 SLP349
                 T00611067 =
2018-02-22 03:53 METAR KBAF 220853Z AUTO 36009KT 10SM OVC070 07/00 A3052 RMK AO2 SLP337 T00720000
                 51019 =
2018-02-22 02:53 METAR KBAF 220753Z AUTO 34008KT 10SM OVC065 08/01 A3050 RMK AO2 SLP329 T00780011
                 =
2018-02-22 01:53 METAR KBAF 220653Z AUTO 34008KT 10SM OVC065 08/01 A3050 RMK AO2 SLP328 T00830006
                 =
2018-02-22 00:53 METAR KBAF 220553Z AUTO 33016KT 10SM FEW070 OVC090 09/01 A3047 RMK AO2 SLP317
                 60000 T00890011 10161 20089 53037 =
2018-02-21 23:53 METAR KBAF 220453Z AUTO 34014G23KT 10SM SCT065 OVC090 10/03 A3043 RMK AO2
                 RAB17E26 SLP304 P0000 T01000033 402610078 =
2018-02-21 22:53 METAR KBAF 220353Z AUTO 32009KT 10SM OVC060 12/06 A3039 RMK AO2 SLP291 T01170061
                 =
2018-02-21 21:53 METAR KBAF 220253Z 31015KT 10SM OVC060 12/07 A3036 RMK AO2 SLP280 T01220067
                 51025 =
2018-02-21 20:53 METAR KBAF 220153Z 32015KT 10SM BKN060 OVC070 14/08 A3034 RMK AO2 SLP275
                 T01390078 =
2018-02-21 19:53 METAR KBAF 220053Z 32007KT 10SM OVC050 15/08 A3032 RMK AO2 SLP270 T01500083 =
2018-02-21 18:53 METAR KBAF 212353Z 33011KT 10SM FEW060 BKN075 BKN100 16/09 A3028 RMK AO2 PK WND
                 31027/2301 SLP255 T01610094 10261 20161 53056 =
2018-02-21 17:53 METAR KBAF 212253Z 31015G24KT 10SM SCT060 SCT070 BKN110 18/11 A3022 RMK AO2 PK
                 WND 31032/2234 WSHFT 2214 PRESRR SLP233 T01830111 =
2018-02-21 17:34 METAR KBAF 212234Z 32023G32KT 10SM BKN060 BKN075 19/12 A3020 RMK AO2 PK WND
                 31032/2234 WSHFT 2214 PRESRR T01940117 =
2018-02-21 16:53 METAR KBAF 212153Z 25010G22KT 10SM CLR 24/13 A3013 RMK AO2 SLP201 T02390128 =
2018-02-21 15:53 METAR KBAF 212053Z 25009G19KT 10SM CLR 26/13 A3011 RMK AO2 PK WND 24029/1956
                 SLP197 T02560128 55003 =
2018-02-21 14:53 METAR KBAF 211953Z 23018G26KT 10SM CLR 26/13 A3011 RMK AO2 PK WND 21026/1949
                 SLP195 T02560128 =
2018-02-21 13:53 METAR KBAF 211853Z 20016KT 10SM CLR 25/13 A3009 RMK AO2 SLP189 T02500133 =
2018-02-21 12:53 METAR KBAF 211753Z 20014KT 10SM CLR 23/14 A3012 RMK AO2 SLP201 T02330139 10233
                 20089 58027 =

Support USWX by starting your Amazon purchase here.